Huddersfield, United Kingdom
Current Conditions -  °F | °C
As of 7:20 PM on Friday 28 Nov 2014 (Local Time) from EGNM Reporting Station
Light Rain Light Rain  
Wind Chill: 42°   Ceiling: 200
Heat Index: 46°   Visibility: 0.81mi
Dew Point: 46°   Wind: 9mph
Humidity: 100%   Direction: 80°E
Pressure: 29.8"   Gusts: NA
Location:  53.65°N, 1.78°W
Report Text: EGNM 281920Z 08008KT 050V110 1300 R32/P1500 -RADZ BR SCT001 BKN002 08/08 Q1009
Loading
Personal Weather Stations






























Interactive Weather Map New forecast layout! Learn more

10-Day Weather Forecast

Advertisements
Track Severe Weather on mobile